createdAt,value
2019-06-10T00:00:37.245Z,101364.72
2019-06-10T00:03:11.559Z,101366.16
2019-06-10T00:05:44.390Z,101363.22
2019-06-10T00:08:17.093Z,101353.98
2019-06-10T00:10:51.110Z,101353.41
2019-06-10T00:13:25.775Z,101351.94
2019-06-10T00:15:59.274Z,101350.12
2019-06-10T00:18:41.455Z,101349.78
2019-06-10T00:21:08.301Z,101355.45
2019-06-10T00:23:41.422Z,101348.45
2019-06-10T00:26:14.409Z,101351.59
2019-06-10T00:28:47.240Z,101345.88
2019-06-10T00:31:21.330Z,101342.36
2019-06-10T00:33:54.100Z,101344.92
2019-06-10T00:36:26.841Z,101337.51
2019-06-10T00:39:03.518Z,101342.84
2019-06-10T00:41:36.745Z,101330.84
2019-06-10T00:44:12.283Z,101335.22
2019-06-10T00:46:43.751Z,101331.22
2019-06-10T00:49:16.285Z,101330.26
2019-06-10T00:51:50.960Z,101334.13
2019-06-10T00:54:23.330Z,101334.60
2019-06-10T00:56:56.015Z,101331.94
2019-06-10T00:59:31.072Z,101335.45
2019-06-10T01:02:03.378Z,101329.98
2019-06-10T01:04:37.085Z,101327.31
2019-06-10T01:07:11.702Z,101332.17
2019-06-10T01:09:44.105Z,101332.52
2019-06-10T01:12:16.820Z,101331.69
2019-06-10T01:14:51.509Z,101327.69
2019-06-10T01:17:23.931Z,101322.36
2019-06-10T01:19:56.525Z,101318.84
2019-06-10T01:22:31.467Z,101305.27
2019-06-10T01:25:03.757Z,101307.94
2019-06-10T01:27:36.600Z,101304.66
2019-06-10T01:30:17.966Z,101307.22
2019-06-10T01:32:44.655Z,101297.08
2019-06-10T01:35:17.529Z,101302.41
2019-06-10T01:37:51.999Z,101296.70
2019-06-10T01:40:24.565Z,101298.16
2019-06-10T01:42:57.429Z,101294.51
2019-06-10T01:45:31.240Z,101282.41
2019-06-10T01:48:04.220Z,101279.95
2019-06-10T01:50:36.705Z,101272.45
2019-06-10T01:53:11.876Z,101264.56
2019-06-10T01:55:43.895Z,101266.75
2019-06-10T01:58:20.773Z,101269.66
2019-06-10T02:00:54.900Z,101267.23
2019-06-10T02:03:28.045Z,101265.08
2019-06-10T02:06:01.459Z,101266.17
2019-06-10T02:08:34.505Z,101264.13
2019-06-10T02:11:07.356Z,101268.60
2019-06-10T02:13:40.945Z,101260.03
2019-06-10T02:16:15.674Z,101255.69
2019-06-10T02:18:59.888Z,101254.73
2019-06-10T02:21:24.428Z,101253.78
2019-06-10T02:23:56.998Z,101250.40
2019-06-10T02:26:30.894Z,101243.59
2019-06-10T02:29:03.576Z,101243.45
2019-06-10T02:31:38.041Z,101233.41
2019-06-10T02:34:13.268Z,101226.89
2019-06-10T02:36:45.261Z,101211.03
2019-06-10T02:39:25.861Z,101201.23
2019-06-10T02:41:54.582Z,101190.98
2019-06-10T02:44:33.313Z,101187.95
2019-06-10T02:47:03.460Z,101174.42
2019-06-10T02:49:55.867Z,101164.86
2019-06-10T02:52:28.631Z,101159.30
2019-06-10T02:54:54.375Z,101160.01
2019-06-10T02:57:32.951Z,101148.87
2019-06-10T03:00:06.634Z,101143.20
2019-06-10T03:02:37.237Z,101134.22
2019-06-10T03:05:14.289Z,101132.75
2019-06-10T03:07:45.835Z,101121.98
2019-06-10T03:10:21.096Z,101130.17
2019-06-10T03:12:53.180Z,101129.27
2019-06-10T03:15:26.774Z,101123.41
2019-06-10T03:18:02.300Z,101117.21
2019-06-10T03:20:34.075Z,101116.79
2019-06-10T03:23:07.090Z,101110.44
2019-06-10T03:25:42.161Z,101116.95
2019-06-10T03:28:15.421Z,101119.84
2019-06-10T03:30:53.942Z,101119.16
2019-06-10T03:33:27.702Z,101113.17
2019-06-10T03:35:57.320Z,101114.11
2019-06-10T03:38:32.255Z,101109.96
2019-06-10T03:41:04.255Z,101108.94
2019-06-10T03:43:36.895Z,101102.46
2019-06-10T03:46:09.616Z,101100.88
2019-06-10T03:48:43.270Z,101106.69
2019-06-10T03:51:17.179Z,101089.12
2019-06-10T03:53:50.120Z,101083.16
2019-06-10T03:56:25.055Z,101077.72
2019-06-10T03:58:57.627Z,101076.94
2019-06-10T04:01:33.158Z,101082.29
2019-06-10T04:04:05.195Z,101070.77
2019-06-10T04:06:37.918Z,101068.81
2019-06-10T04:09:12.108Z,101070.81
2019-06-10T04:11:45.080Z,101062.88
2019-06-10T04:14:18.116Z,101065.39
2019-06-10T04:16:52.545Z,101061.78
2019-06-10T04:19:26.856Z,101064.44
2019-06-10T04:22:02.443Z,101063.74
2019-06-10T04:24:34.440Z,101068.42
2019-06-10T04:27:07.265Z,101068.49
2019-06-10T04:29:42.071Z,101061.81
2019-06-10T04:32:14.706Z,101056.59
2019-06-10T04:34:47.562Z,101064.08
2019-06-10T04:37:22.970Z,101062.45
2019-06-10T04:39:57.529Z,101064.33
2019-06-10T04:42:29.630Z,101067.11
2019-06-10T04:45:03.176Z,101066.05
2019-06-10T04:47:36.075Z,101067.60
2019-06-10T04:50:24.148Z,101058.67
2019-06-10T04:52:44.232Z,101062.15
2019-06-10T04:55:17.085Z,101059.42
2019-06-10T04:57:52.019Z,101057.55
2019-06-10T05:00:27.167Z,101057.44
2019-06-10T05:02:59.655Z,101058.03
2019-06-10T05:05:33.555Z,101061.67
2019-06-10T05:08:06.587Z,101059.17
2019-06-10T05:10:39.355Z,101057.34
2019-06-10T05:13:12.245Z,101057.16
2019-06-10T05:15:45.456Z,101059.55
2019-06-10T05:18:19.527Z,101057.67
2019-06-10T05:20:58.438Z,101049.91
2019-06-10T05:23:27.923Z,101046.77
2019-06-10T05:26:02.838Z,101039.00
2019-06-10T05:28:35.621Z,101034.69
2019-06-10T05:31:08.645Z,101031.88
2019-06-10T05:33:42.646Z,101027.27
2019-06-10T05:36:15.631Z,101023.05
2019-06-10T05:38:48.286Z,101024.91
2019-06-10T05:41:24.085Z,101021.30
2019-06-10T05:43:55.515Z,101015.73
2019-06-10T05:46:28.717Z,101013.38
2019-06-10T05:49:03.083Z,101010.52
2019-06-10T05:51:35.805Z,101013.69
2019-06-10T05:54:08.520Z,101008.47
2019-06-10T05:56:43.337Z,101005.61
2019-06-10T05:59:15.980Z,101005.64
2019-06-10T06:01:49.561Z,101004.81
2019-06-10T06:04:23.362Z,100999.25
2019-06-10T06:06:57.091Z,100994.70
2019-06-10T06:09:32.317Z,100995.14
2019-06-10T06:12:04.406Z,100986.19
2019-06-10T06:14:38.135Z,100989.30
2019-06-10T06:17:12.696Z,100982.82
2019-06-10T06:19:45.325Z,100987.19
2019-06-10T06:22:21.984Z,100986.34
2019-06-10T06:24:53.815Z,100992.47
2019-06-10T06:27:26.760Z,100986.47
2019-06-10T06:29:59.440Z,100983.20
2019-06-10T06:32:33.721Z,100980.58
2019-06-10T06:35:07.490Z,100990.69
2019-06-10T06:37:42.731Z,100989.39
2019-06-10T06:40:15.753Z,100989.66
2019-06-10T06:42:48.615Z,100984.41
2019-06-10T06:45:22.214Z,100984.22
2019-06-10T06:47:55.733Z,100979.83
2019-06-10T06:50:28.494Z,100969.90
2019-06-10T06:53:20.054Z,100962.36
2019-06-10T06:55:37.806Z,100963.50
2019-06-10T06:58:12.587Z,100962.83
2019-06-10T07:01:00.452Z,100963.96
2019-06-10T07:03:20.240Z,100959.77
2019-06-10T07:05:54.710Z,100952.81
2019-06-10T07:08:30.222Z,100945.47
2019-06-10T07:11:04.856Z,100951.17
2019-06-10T07:13:39.538Z,100946.97
2019-06-10T07:16:13.285Z,100944.81
2019-06-10T07:18:50.331Z,100948.70
2019-06-10T07:21:22.606Z,100938.23
2019-06-10T07:23:54.671Z,100935.23
2019-06-10T07:26:27.034Z,100933.27
2019-06-10T07:28:59.545Z,100933.31
2019-06-10T07:31:34.701Z,100932.83
2019-06-10T07:34:06.370Z,100932.66
2019-06-10T07:36:38.964Z,100924.28
2019-06-10T07:39:13.445Z,100921.44
2019-06-10T07:41:47.927Z,100919.73
2019-06-10T07:44:22.668Z,100918.69
2019-06-10T07:46:55.739Z,100917.09
2019-06-10T07:49:32.151Z,100917.52
2019-06-10T07:52:15.765Z,100922.17
2019-06-10T07:54:39.184Z,100922.44
2019-06-10T07:57:12.960Z,100913.53
2019-06-10T07:59:46.023Z,100918.28
2019-06-10T08:02:19.221Z,100921.19
2019-06-10T08:04:54.195Z,100918.98
2019-06-10T08:07:26.030Z,100910.44
2019-06-10T08:09:58.309Z,100909.92
2019-06-10T08:12:32.558Z,100907.44
2019-06-10T08:15:06.350Z,100905.84
2019-06-10T08:17:40.401Z,100899.47
2019-06-10T08:20:13.577Z,100899.52
2019-06-10T08:22:54.071Z,100903.06
2019-06-10T08:25:22.937Z,100892.23
2019-06-10T08:27:55.431Z,100888.36
2019-06-10T08:30:28.052Z,100887.25
2019-06-10T08:33:03.383Z,100883.31
2019-06-10T08:35:43.645Z,100876.39
2019-06-10T08:38:09.340Z,100885.23
2019-06-10T08:40:44.929Z,100874.27
2019-06-10T08:43:16.495Z,100875.85
2019-06-10T08:45:49.120Z,100868.41
2019-06-10T08:48:22.973Z,100874.97
2019-06-10T08:50:56.160Z,100864.14
2019-06-10T08:53:28.551Z,100869.44
2019-06-10T08:56:02.919Z,100862.47
2019-06-10T08:58:34.948Z,100863.77
2019-06-10T09:01:08.500Z,100857.23
2019-06-10T09:03:44.676Z,100851.79
2019-06-10T09:06:14.880Z,100847.27
2019-06-10T09:08:50.945Z,100852.18
2019-06-10T09:11:23.771Z,100853.86
2019-06-10T09:13:56.540Z,100839.19
2019-06-10T09:16:29.100Z,100838.25
2019-06-10T09:19:02.234Z,100837.12
2019-06-10T09:21:35.941Z,100840.28
2019-06-10T09:24:08.241Z,100839.06
2019-06-10T09:26:44.566Z,100837.53
2019-06-10T09:29:14.782Z,100827.50
2019-06-10T09:31:51.309Z,100830.80
2019-06-10T09:34:23.624Z,100832.95
2019-06-10T09:36:56.901Z,100827.45
2019-06-10T09:39:29.114Z,100828.69
2019-06-10T09:42:06.121Z,100818.09
2019-06-10T09:44:35.941Z,100812.95
2019-06-10T09:47:08.371Z,100812.68
2019-06-10T09:49:45.359Z,100818.02
2019-06-10T09:52:16.236Z,100810.27
2019-06-10T09:54:55.689Z,100819.67
2019-06-10T09:57:23.835Z,100806.80
2019-06-10T09:59:56.845Z,100814.41
2019-06-10T10:02:29.356Z,100821.89
2019-06-10T10:05:02.944Z,100816.41
2019-06-10T10:07:38.455Z,100811.23
2019-06-10T10:10:12.923Z,100811.58
2019-06-10T10:12:47.560Z,100799.94
2019-06-10T10:15:27.507Z,100796.63
2019-06-10T10:17:56.358Z,100793.44
2019-06-10T10:20:28.895Z,100794.55
2019-06-10T10:23:02.665Z,100797.98
2019-06-10T10:25:35.549Z,100791.81
2019-06-10T10:28:07.946Z,100775.80
2019-06-10T10:30:42.506Z,100774.62
2019-06-10T10:33:14.640Z,100774.16
2019-06-10T10:35:48.001Z,100772.15
2019-06-10T10:38:22.911Z,100774.11
2019-06-10T10:40:58.516Z,100774.43
2019-06-10T10:43:34.066Z,100778.80
2019-06-10T10:46:05.493Z,100772.30
2019-06-10T10:48:38.660Z,100770.05
2019-06-10T10:51:13.003Z,100767.00
2019-06-10T10:53:50.505Z,100765.11
2019-06-10T10:56:22.180Z,100762.25
2019-06-10T10:58:57.797Z,100762.02
2019-06-10T11:01:28.954Z,100757.57
2019-06-10T11:04:03.050Z,100748.34
2019-06-10T11:06:36.725Z,100755.31
2019-06-10T11:09:12.994Z,100748.28
2019-06-10T11:11:46.046Z,100746.75
2019-06-10T11:14:22.870Z,100753.95
2019-06-10T11:16:57.098Z,100742.19
2019-06-10T11:19:28.905Z,100748.61
2019-06-10T11:22:02.847Z,100747.56
2019-06-10T11:24:40.758Z,100740.80
2019-06-10T11:27:12.153Z,100739.85
2019-06-10T11:29:44.261Z,100732.07
2019-06-10T11:32:16.989Z,100728.84
2019-06-10T11:34:49.838Z,100726.69
2019-06-10T11:37:23.125Z,100723.22
2019-06-10T11:39:56.530Z,100712.04
2019-06-10T11:42:33.277Z,100705.09
2019-06-10T11:45:07.290Z,100707.14
2019-06-10T11:47:42.462Z,100703.77
2019-06-10T11:50:15.093Z,100698.95
2019-06-10T11:52:47.610Z,100695.57
2019-06-10T11:55:21.403Z,100691.70
2019-06-10T11:57:57.600Z,100695.03
2019-06-10T12:00:33.142Z,100705.66
2019-06-10T12:03:05.408Z,100698.31
2019-06-10T12:05:38.176Z,100689.83
2019-06-10T12:08:13.042Z,100686.98
2019-06-10T12:10:44.988Z,100686.55
2019-06-10T12:13:17.464Z,100698.24
2019-06-10T12:16:48.283Z,100685.84
2019-06-10T12:18:24.080Z,100688.50
2019-06-10T12:21:02.868Z,100690.38
2019-06-10T12:23:33.623Z,100685.63
2019-06-10T12:26:05.893Z,100687.05
2019-06-10T12:28:38.572Z,100687.11
2019-06-10T12:31:13.380Z,100680.01
2019-06-10T12:33:45.526Z,100676.19
2019-06-10T12:36:18.897Z,100672.53
2019-06-10T12:38:55.357Z,100664.73
2019-06-10T12:41:26.140Z,100664.28
2019-06-10T12:43:58.695Z,100664.45
2019-06-10T12:46:32.783Z,100664.94
2019-06-10T12:49:08.456Z,100654.67
2019-06-10T12:51:40.005Z,100654.93
2019-06-10T12:54:13.181Z,100660.71
2019-06-10T12:56:46.230Z,100665.56
2019-06-10T12:59:18.802Z,100664.36
2019-06-10T13:01:53.162Z,100660.98
2019-06-10T13:04:27.050Z,100652.73
2019-06-10T13:07:05.173Z,100648.62
2019-06-10T13:09:38.346Z,100639.84
2019-06-10T13:12:12.956Z,100645.09
2019-06-10T13:14:45.111Z,100634.95
2019-06-10T13:17:18.010Z,100629.41
2019-06-10T13:19:50.815Z,100632.97
2019-06-10T13:22:23.570Z,100625.97
2019-06-10T13:24:56.475Z,100628.05
2019-06-10T13:27:29.454Z,100624.95
2019-06-10T13:30:02.711Z,100622.70
2019-06-10T13:32:35.895Z,100618.76
2019-06-10T13:35:08.338Z,100610.92
2019-06-10T13:37:42.846Z,100606.47
2019-06-10T13:40:16.210Z,100599.38
2019-06-10T13:42:48.900Z,100582.75
2019-06-10T13:45:22.430Z,100588.33
2019-06-10T13:47:56.155Z,100575.24
2019-06-10T13:50:29.094Z,100575.69
2019-06-10T13:53:03.772Z,100579.87
2019-06-10T13:55:36.140Z,100566.23
2019-06-10T13:58:11.465Z,100578.09
2019-06-10T14:00:46.730Z,100576.34
2019-06-10T14:03:18.775Z,100572.06
2019-06-10T14:05:57.889Z,100571.27
2019-06-10T14:08:26.766Z,100562.48
2019-06-10T14:11:03.349Z,100552.93
2019-06-10T14:13:33.880Z,100541.38
2019-06-10T14:16:07.721Z,100540.50
2019-06-10T14:18:42.390Z,100543.55
2019-06-10T14:21:18.455Z,100539.13
2019-06-10T14:23:49.461Z,100535.84
2019-06-10T14:26:37.172Z,100552.11
2019-06-10T14:28:56.576Z,100538.70
2019-06-10T14:31:42.835Z,100529.63
2019-06-10T14:34:05.714Z,100524.81
2019-06-10T14:36:38.065Z,100520.24
2019-06-10T14:39:13.162Z,100533.22
2019-06-10T14:41:45.275Z,100525.65
2019-06-10T14:44:18.144Z,100528.70
2019-06-10T14:46:52.968Z,100525.81
2019-06-10T14:49:24.825Z,100524.66
2019-06-10T14:51:57.362Z,100523.25
2019-06-10T14:54:32.223Z,100521.53
2019-06-10T14:57:05.226Z,100521.30
2019-06-10T14:59:37.913Z,100518.70
2019-06-10T15:02:12.888Z,100511.58
2019-06-10T15:04:44.939Z,100505.72
2019-06-10T15:07:17.925Z,100505.44
2019-06-10T15:09:52.603Z,100505.02
2019-06-10T15:12:25.025Z,100506.89
2019-06-10T15:14:57.715Z,100494.95
2019-06-10T15:17:32.546Z,100497.73
2019-06-10T15:20:07.426Z,100499.80
2019-06-10T15:22:43.005Z,100494.80
2019-06-10T15:25:17.067Z,100488.82
2019-06-10T15:27:52.047Z,100492.77
2019-06-10T15:30:28.091Z,100494.98
2019-06-10T15:32:58.845Z,100483.47
2019-06-10T15:35:32.789Z,100487.70
2019-06-10T15:38:05.386Z,100482.20
2019-06-10T15:40:38.000Z,100467.53
2019-06-10T15:43:11.694Z,100478.52
2019-06-10T15:45:44.635Z,100474.73
2019-06-10T15:48:18.822Z,100471.98
2019-06-10T15:50:51.770Z,100472.62
2019-06-10T15:53:25.783Z,100471.81
2019-06-10T15:56:16.888Z,100467.73
2019-06-10T15:58:34.265Z,100454.90
2019-06-10T16:01:07.010Z,100453.89
2019-06-10T16:03:42.230Z,100458.73
2019-06-10T16:06:14.385Z,100454.08
2019-06-10T16:08:48.485Z,100456.17
2019-06-10T16:11:25.467Z,100458.82
2019-06-10T16:13:56.765Z,100451.70
2019-06-10T16:16:29.518Z,100452.01
2019-06-10T16:19:02.292Z,100452.12
2019-06-10T16:21:35.460Z,100442.28
2019-06-10T16:24:07.952Z,100442.18
2019-06-10T16:26:40.645Z,100441.94
2019-06-10T16:29:13.336Z,100443.39
2019-06-10T16:31:45.960Z,100444.61
2019-06-10T16:34:19.694Z,100443.11
2019-06-10T16:36:53.314Z,100443.29
2019-06-10T16:39:26.899Z,100445.59
2019-06-10T16:42:00.174Z,100445.48
2019-06-10T16:44:33.097Z,100445.24
2019-06-10T16:47:05.640Z,100446.53
2019-06-10T16:49:38.229Z,100440.97
2019-06-10T16:52:12.150Z,100442.58
2019-06-10T16:54:44.904Z,100432.61
2019-06-10T16:57:17.730Z,100438.19
2019-06-10T16:59:52.060Z,100430.07
2019-06-10T17:02:25.451Z,100433.15
2019-06-10T17:04:59.220Z,100431.43
2019-06-10T17:07:32.965Z,100442.14
2019-06-10T17:10:07.755Z,100436.59
2019-06-10T17:12:42.519Z,100433.20
2019-06-10T17:15:14.990Z,100433.95
2019-06-10T17:17:47.774Z,100431.22
2019-06-10T17:20:21.184Z,100433.09
2019-06-10T17:22:55.189Z,100428.79
2019-06-10T17:25:28.137Z,100421.58
2019-06-10T17:28:15.110Z,100425.58
2019-06-10T17:30:35.374Z,100420.30
2019-06-10T17:33:08.270Z,100421.89
2019-06-10T17:35:43.130Z,100415.34
2019-06-10T17:38:15.558Z,100422.36
2019-06-10T17:40:48.584Z,100422.96
2019-06-10T17:43:23.161Z,100421.31
2019-06-10T17:45:56.209Z,100415.33
2019-06-10T17:48:29.264Z,100414.44
2019-06-10T17:51:02.468Z,100414.06
2019-06-10T17:53:35.351Z,100410.98
2019-06-10T17:56:07.941Z,100410.11
2019-06-10T17:58:53.441Z,100410.53
2019-06-10T18:01:14.650Z,100404.45
2019-06-10T18:03:47.265Z,100401.78
2019-06-10T18:06:22.461Z,100405.55
2019-06-10T18:08:54.496Z,100410.48
2019-06-10T18:11:28.053Z,100408.52
2019-06-10T18:14:02.678Z,100403.59
2019-06-10T18:16:36.703Z,100405.42
2019-06-10T18:19:09.406Z,100410.59
2019-06-10T18:21:42.070Z,100414.97
2019-06-10T18:24:15.676Z,100410.25
2019-06-10T18:26:48.302Z,100418.91
2019-06-10T18:29:23.057Z,100415.09
2019-06-10T18:31:55.276Z,100420.45
2019-06-10T18:34:27.794Z,100417.98
2019-06-10T18:37:02.684Z,100423.44
2019-06-10T18:39:35.631Z,100420.45
2019-06-10T18:42:08.206Z,100428.79
2019-06-10T18:44:40.871Z,100432.78
2019-06-10T18:47:13.505Z,100430.78
2019-06-10T18:49:46.216Z,100432.38
2019-06-10T18:52:18.651Z,100426.56
2019-06-10T18:54:52.886Z,100434.16
2019-06-10T18:57:25.635Z,100432.51
2019-06-10T18:59:58.175Z,100434.83
2019-06-10T19:02:32.326Z,100437.59
2019-06-10T19:05:08.031Z,100437.82
2019-06-10T19:07:42.882Z,100437.72
2019-06-10T19:10:18.420Z,100445.06
2019-06-10T19:12:53.103Z,100441.95
2019-06-10T19:15:25.594Z,100438.81
2019-06-10T19:17:58.447Z,100436.84
2019-06-10T19:20:36.365Z,100438.03
2019-06-10T19:23:07.150Z,100436.86
2019-06-10T19:25:41.892Z,100432.99
2019-06-10T19:28:14.331Z,100431.52
2019-06-10T19:30:47.021Z,100430.75
2019-06-10T19:33:19.931Z,100439.01
2019-06-10T19:35:53.307Z,100436.30
2019-06-10T19:38:26.272Z,100431.55
2019-06-10T19:40:59.096Z,100433.08
2019-06-10T19:43:34.621Z,100431.38
2019-06-10T19:46:07.723Z,100441.27
2019-06-10T19:48:44.573Z,100439.98
2019-06-10T19:51:15.426Z,100440.02
2019-06-10T19:53:47.980Z,100440.51
2019-06-10T19:56:24.184Z,100439.44
2019-06-10T19:58:55.459Z,100434.64
2019-06-10T20:01:28.298Z,100435.53
2019-06-10T20:04:02.629Z,100439.79
2019-06-10T20:06:35.790Z,100436.73
2019-06-10T20:09:13.044Z,100439.48
2019-06-10T20:11:47.265Z,100445.37
2019-06-10T20:14:19.815Z,100446.17
2019-06-10T20:16:52.877Z,100447.11
2019-06-10T20:19:25.625Z,100441.19
2019-06-10T20:21:58.109Z,100432.11
2019-06-10T20:24:30.485Z,100426.56
2019-06-10T20:27:03.396Z,100423.63
2019-06-10T20:29:36.015Z,100417.72
2019-06-10T20:32:08.871Z,100428.92
2019-06-10T20:34:41.515Z,100431.19
2019-06-10T20:37:14.244Z,100424.52
2019-06-10T20:39:47.795Z,100426.39
2019-06-10T20:42:22.965Z,100434.48
2019-06-10T20:44:55.228Z,100434.86
2019-06-10T20:47:29.195Z,100436.05
2019-06-10T20:50:03.067Z,100436.59
2019-06-10T20:52:36.265Z,100442.30
2019-06-10T20:55:12.719Z,100438.16
2019-06-10T20:57:56.257Z,100443.19
2019-06-10T21:00:33.629Z,100444.40
2019-06-10T21:03:07.575Z,100455.17
2019-06-10T21:05:41.610Z,100457.27
2019-06-10T21:08:14.285Z,100461.19
2019-06-10T21:10:49.449Z,100465.24
2019-06-10T21:13:22.651Z,100465.77
2019-06-10T21:15:59.115Z,100459.08
2019-06-10T21:18:29.886Z,100462.00
2019-06-10T21:21:02.886Z,100451.34
2019-06-10T21:23:35.530Z,100457.91
2019-06-10T21:26:08.400Z,100460.86
2019-06-10T21:28:43.646Z,100467.11
2019-06-10T21:31:15.875Z,100464.11
2019-06-10T21:33:49.534Z,100465.14
2019-06-10T21:36:23.160Z,100461.50
2019-06-10T21:38:56.127Z,100453.67
2019-06-10T21:41:28.805Z,100460.57
2019-06-10T21:44:03.190Z,100471.16
2019-06-10T21:46:36.009Z,100467.79
2019-06-10T21:49:09.595Z,100455.25
2019-06-10T21:51:45.311Z,100448.38
2019-06-10T21:54:17.851Z,100459.76
2019-06-10T21:56:54.014Z,100452.08
2019-06-10T21:59:24.835Z,100449.73
2019-06-10T22:01:57.776Z,100443.23
2019-06-10T22:04:32.517Z,100442.92
2019-06-10T22:07:04.930Z,100447.29
2019-06-10T22:09:37.662Z,100443.45
2019-06-10T22:12:11.979Z,100441.63
2019-06-10T22:14:46.077Z,100437.61
2019-06-10T22:17:18.876Z,100441.13
2019-06-10T22:19:53.603Z,100442.12
2019-06-10T22:22:26.176Z,100448.14
2019-06-10T22:24:58.692Z,100451.00
2019-06-10T22:27:32.681Z,100458.18
2019-06-10T22:30:11.399Z,100461.17
2019-06-10T22:32:42.949Z,100458.84
2019-06-10T22:35:15.780Z,100469.73
2019-06-10T22:37:49.646Z,100472.06
2019-06-10T22:40:22.551Z,100476.08
2019-06-10T22:42:56.792Z,100482.45
2019-06-10T22:45:29.451Z,100487.80
2019-06-10T22:48:03.071Z,100493.66
2019-06-10T22:50:36.027Z,100486.12
2019-06-10T22:53:09.006Z,100492.31
2019-06-10T22:55:43.279Z,100490.48
2019-06-10T22:58:16.067Z,100496.19
2019-06-10T23:00:49.987Z,100495.83
2019-06-10T23:03:23.626Z,100494.34
2019-06-10T23:05:58.520Z,100494.17
2019-06-10T23:08:33.408Z,100495.83
2019-06-10T23:11:06.262Z,100486.98
2019-06-10T23:13:38.907Z,100480.96
2019-06-10T23:16:13.010Z,100480.11
2019-06-10T23:18:45.846Z,100465.25
2019-06-10T23:21:18.486Z,100457.50
2019-06-10T23:23:53.810Z,100443.97
2019-06-10T23:26:25.667Z,100443.44
2019-06-10T23:28:58.836Z,100439.28
2019-06-10T23:31:33.679Z,100439.27
2019-06-10T23:34:06.602Z,100441.13
2019-06-10T23:36:39.210Z,100433.09
2019-06-10T23:39:13.199Z,100425.73
2019-06-10T23:41:45.950Z,100423.39
2019-06-10T23:44:18.825Z,100423.70
2019-06-10T23:46:51.658Z,100423.53
2019-06-10T23:49:24.277Z,100428.40
2019-06-10T23:51:57.593Z,100441.29
2019-06-10T23:54:32.272Z,100442.28
2019-06-10T23:57:06.150Z,100445.62
2019-06-10T23:59:42.624Z,100453.31
